PWSweather.com
Personal Weather Stations
Station Observations
265NC
Va2kh, Stcasimir, QC G0A 3L0

Va2khStcasimir, QC G0A 3L0

Lat: 46.65839, Lon: -72.13905

Elevation: 105

Station Type: National Geographic 265NC

http://www.qsl.net/va2kh

High Low Average
Temperature 77.0°F25.0°C 61.2°F16.2°C 68.6°F20.3°C
Dew Point 73.7°F23.2°C 60.9°F16.1°C 67.4°F19.7°C
Winds 4.2 mph 6.8 kmh Calm Calm 2.0 mph E3.2 kmh E
Wind Gusts 15.9 mph25.6 kmh 1.6 mph2.6 kmh 8.0 mph12.9 kmh
Humidity 99% 84% 96%
Pressure 30.10 in1019.3 mb 30.01 in1016.3 mb -
Precipitation 0.06 in1.5 mm - -
Hour Temp Dew Point Humidity Winds Wind Gusts Pressure Precip Precip Rate Daily Precip Total
12:00 AM 71.2°F21.8°C 71.0°F21.7°C 99% 0.1 mph WSW0.2 kmh WSW 2.2 mph3.5 kmh 30.01 in1016.3 mb 0.00 in0.0 mm 0.00 in/hr0.0 mm/hr 0.00 in0.0 mm
12:01 AM 71.2°F21.8°C 70.9°F21.6°C 99% 0.2 mph WSW0.3 kmh WSW 2.2 mph3.5 kmh 30.01 in1016.3 mb 0.00 in0.0 mm 0.00 in/hr0.0 mm/hr 0.00 in0.0 mm
12:15 AM 71.2°F21.8°C 71.0°F21.7°C 99% Calm Calm 2.2 mph3.5 kmh 30.01 in1016.3 mb 0.00 in0.0 mm 0.00 in/hr0.0 mm/hr 0.00 in0.0 mm
12:30 AM 71.2°F21.8°C 71.0°F21.7°C 99% Calm Calm 1.6 mph2.6 kmh 30.00 in1015.9 mb 0.00 in0.0 mm 0.00 in/hr0.0 mm/hr 0.00 in0.0 mm
12:45 AM 71.1°F21.7°C 70.8°F21.6°C 99% Calm Calm 2.2 mph3.5 kmh 30.01 in1016.3 mb 0.00 in0.0 mm 0.00 in/hr0.0 mm/hr 0.00 in0.0 mm
01:00 AM 71.1°F21.7°C 70.8°F21.6°C 99% 0.2 mph SW0.3 kmh SW 2.2 mph3.5 kmh 30.01 in1016.3 mb 0.00 in0.0 mm 0.00 in/hr0.0 mm/hr 0.00 in0.0 mm
01:15 AM 71.1°F21.7°C 70.8°F21.6°C 99% Calm Calm 1.6 mph2.6 kmh 30.01 in1016.3 mb 0.00 in0.0 mm 0.00 in/hr0.0 mm/hr 0.00 in0.0 mm
01:30 AM 71.1°F21.7°C 70.8°F21.6°C 99% 0.1 mph S0.2 kmh S 2.2 mph3.5 kmh 30.01 in1016.3 mb 0.00 in0.0 mm 0.00 in/hr0.0 mm/hr 0.00 in0.0 mm
01:45 AM 71.1°F21.7°C 70.8°F21.6°C 99% Calm Calm 2.2 mph3.5 kmh 30.01 in1016.3 mb 0.00 in0.0 mm 0.00 in/hr0.0 mm/hr 0.00 in0.0 mm
02:00 AM 71.1°F21.7°C 70.8°F21.6°C 99% Calm Calm 1.6 mph2.6 kmh 30.01 in1016.3 mb 0.00 in0.0 mm 0.00 in/hr0.0 mm/hr 0.00 in0.0 mm
02:15 AM 71.1°F21.7°C 70.8°F21.6°C 99% Calm Calm 1.6 mph2.6 kmh 30.01 in1016.3 mb 0.00 in0.0 mm 0.00 in/hr0.0 mm/hr 0.00 in0.0 mm
02:30 AM 70.7°F21.5°C 70.4°F21.3°C 99% 0.1 mph SSE0.2 kmh SSE 3.1 mph5.0 kmh 30.01 in1016.3 mb 0.00 in0.0 mm 0.00 in/hr0.0 mm/hr 0.00 in0.0 mm
02:45 AM 70.7°F21.5°C 70.4°F21.3°C 99% 0.2 mph S0.3 kmh S 2.2 mph3.5 kmh 30.02 in1016.6 mb 0.00 in0.0 mm 0.00 in/hr0.0 mm/hr 0.00 in0.0 mm
03:00 AM 69.4°F20.8°C 69.2°F20.7°C 99% 2.4 mph ESE3.9 kmh ESE 13.6 mph21.9 kmh 30.02 in1016.6 mb 0.00 in0.0 mm 0.00 in/hr0.0 mm/hr 0.00 in0.0 mm
03:15 AM 68.2°F20.1°C 67.9°F19.9°C 99% 2.4 mph SSW3.9 kmh SSW 9.8 mph15.8 kmh 30.02 in1016.6 mb 0.00 in0.0 mm 0.00 in/hr0.0 mm/hr 0.00 in0.0 mm
03:30 AM 67.5°F19.7°C 67.2°F19.6°C 99% 3.7 mph NE6.0 kmh NE 13.0 mph20.9 kmh 30.03 in1016.9 mb 0.00 in0.0 mm 0.00 in/hr0.0 mm/hr 0.00 in0.0 mm
03:45 AM 66.9°F19.4°C 66.7°F19.3°C 99% 3.6 mph SE5.8 kmh SE 15.2 mph24.5 kmh 30.03 in1016.9 mb 0.00 in0.0 mm 0.00 in/hr0.0 mm/hr 0.00 in0.0 mm
04:00 AM 66.7°F19.3°C 66.5°F19.2°C 99% 2.0 mph SSE3.2 kmh SSE 7.6 mph12.2 kmh 30.04 in1017.3 mb 0.00 in0.0 mm 0.00 in/hr0.0 mm/hr 0.00 in0.0 mm
04:15 AM 66.4°F19.1°C 66.1°F18.9°C 99% 1.8 mph SSE2.9 kmh SSE 8.3 mph13.4 kmh 30.04 in1017.3 mb 0.02 in0.5 mm 0.08 in/hr2.0 mm/hr 0.02 in0.5 mm
04:30 AM 66.2°F19.0°C 65.9°F18.8°C 99% 2.2 mph SSE3.5 kmh SSE 9.2 mph14.8 kmh 30.05 in1017.6 mb 0.02 in0.5 mm 0.00 in/hr0.0 mm/hr 0.02 in0.5 mm
04:45 AM 66.4°F19.1°C 66.1°F18.9°C 99% 2.4 mph E3.9 kmh E 6.9 mph11.1 kmh 30.05 in1017.6 mb 0.02 in0.5 mm 0.00 in/hr0.0 mm/hr 0.02 in0.5 mm
05:00 AM 66.2°F19.0°C 65.9°F18.8°C 99% 2.1 mph SE3.4 kmh SE 8.3 mph13.4 kmh 30.06 in1017.9 mb 0.02 in0.5 mm 0.00 in/hr0.0 mm/hr 0.02 in0.5 mm
05:15 AM 66.2°F19.0°C 65.9°F18.8°C 99% 1.4 mph E2.3 kmh E 7.6 mph12.2 kmh 30.06 in1017.9 mb 0.00 in0.0 mm 0.00 in/hr0.0 mm/hr 0.02 in0.5 mm
05:30 AM 66.2°F19.0°C 65.9°F18.8°C 99% 1.8 mph E2.9 kmh E 6.0 mph9.7 kmh 30.06 in1017.9 mb 0.00 in0.0 mm 0.00 in/hr0.0 mm/hr 0.02 in0.5 mm
05:45 AM 66.2°F19.0°C 65.9°F18.8°C 99% 0.4 mph SE0.6 kmh SE 6.0 mph9.7 kmh 30.07 in1018.3 mb 0.01 in0.3 mm 0.04 in/hr1.0 mm/hr 0.04 in1.0 mm
06:00 AM 66.0°F18.9°C 65.8°F18.8°C 99% 2.2 mph SE3.5 kmh SE 7.6 mph12.2 kmh 30.06 in1017.9 mb 0.01 in0.3 mm 0.00 in/hr0.0 mm/hr 0.04 in1.0 mm
06:15 AM 66.0°F18.9°C 65.8°F18.8°C 99% 2.3 mph E3.7 kmh E 6.9 mph11.1 kmh 30.07 in1018.3 mb 0.01 in0.3 mm 0.00 in/hr0.0 mm/hr 0.04 in1.0 mm
06:30 AM 65.8°F18.8°C 65.6°F18.7°C 99% 2.7 mph ESE4.3 kmh ESE 9.2 mph14.8 kmh 30.07 in1018.3 mb 0.01 in0.3 mm 0.00 in/hr0.0 mm/hr 0.04 in1.0 mm
06:45 AM 65.7°F18.7°C 65.4°F18.6°C 99% 1.6 mph E2.6 kmh E 9.2 mph14.8 kmh 30.07 in1018.3 mb 0.00 in0.0 mm 0.00 in/hr0.0 mm/hr 0.04 in1.0 mm
07:00 AM 65.7°F18.7°C 65.4°F18.6°C 99% 0.7 mph SE1.1 kmh SE 5.4 mph8.7 kmh 30.07 in1018.3 mb 0.00 in0.0 mm 0.00 in/hr0.0 mm/hr 0.04 in1.0 mm
07:15 AM 65.5°F18.6°C 65.2°F18.4°C 99% 0.8 mph SE1.3 kmh SE 6.0 mph9.7 kmh 30.08 in1018.6 mb 0.00 in0.0 mm 0.00 in/hr0.0 mm/hr 0.04 in1.0 mm
07:30 AM 65.5°F18.6°C 65.2°F18.4°C 99% 2.3 mph E3.7 kmh E 8.3 mph13.4 kmh 30.08 in1018.6 mb 0.00 in0.0 mm 0.00 in/hr0.0 mm/hr 0.04 in1.0 mm
07:45 AM 65.5°F18.6°C 65.2°F18.4°C 99% 1.3 mph SE2.1 kmh SE 6.0 mph9.7 kmh 30.09 in1019.0 mb 0.00 in0.0 mm 0.00 in/hr0.0 mm/hr 0.04 in1.0 mm
08:00 AM 65.3°F18.5°C 65.0°F18.3°C 99% 1.7 mph E2.7 kmh E 6.9 mph11.1 kmh 30.08 in1018.6 mb 0.00 in0.0 mm 0.00 in/hr0.0 mm/hr 0.04 in1.0 mm
08:15 AM 65.3°F18.5°C 65.0°F18.3°C 99% 0.8 mph SSE1.3 kmh SSE 5.4 mph8.7 kmh 30.08 in1018.6 mb 0.00 in0.0 mm 0.00 in/hr0.0 mm/hr 0.04 in1.0 mm
08:30 AM 65.1°F18.4°C 64.9°F18.3°C 99% 1.8 mph SE2.9 kmh SE 7.6 mph12.2 kmh 30.08 in1018.6 mb 0.00 in0.0 mm 0.00 in/hr0.0 mm/hr 0.04 in1.0 mm
08:45 AM 65.1°F18.4°C 64.9°F18.3°C 99% 2.2 mph E3.5 kmh E 9.2 mph14.8 kmh 30.08 in1018.6 mb 0.01 in0.3 mm 0.04 in/hr1.0 mm/hr 0.05 in1.3 mm
09:00 AM 65.3°F18.5°C 65.0°F18.3°C 99% 1.9 mph E3.1 kmh E 9.2 mph14.8 kmh 30.08 in1018.6 mb 0.01 in0.3 mm 0.00 in/hr0.0 mm/hr 0.05 in1.3 mm
09:15 AM 65.5°F18.6°C 65.2°F18.4°C 99% 2.4 mph E3.9 kmh E 10.7 mph17.2 kmh 30.09 in1019.0 mb 0.01 in0.3 mm 0.00 in/hr0.0 mm/hr 0.05 in1.3 mm
09:30 AM 65.7°F18.7°C 65.4°F18.6°C 99% 2.1 mph E3.4 kmh E 9.2 mph14.8 kmh 30.09 in1019.0 mb 0.01 in0.3 mm 0.00 in/hr0.0 mm/hr 0.05 in1.3 mm
09:45 AM 65.7°F18.7°C 65.4°F18.6°C 99% 2.2 mph SE3.5 kmh SE 9.8 mph15.8 kmh 30.08 in1018.6 mb 0.00 in0.0 mm 0.00 in/hr0.0 mm/hr 0.05 in1.3 mm
10:00 AM 65.8°F18.8°C 65.6°F18.7°C 99% 1.6 mph SE2.6 kmh SE 10.7 mph17.2 kmh 30.09 in1019.0 mb 0.00 in0.0 mm 0.00 in/hr0.0 mm/hr 0.05 in1.3 mm
10:15 AM 65.8°F18.8°C 65.6°F18.7°C 99% 2.3 mph ESE3.7 kmh ESE 9.2 mph14.8 kmh 30.09 in1019.0 mb 0.01 in0.3 mm 0.04 in/hr1.0 mm/hr 0.06 in1.5 mm
10:30 AM 66.0°F18.9°C 65.8°F18.8°C 99% 2.0 mph E3.2 kmh E 7.6 mph12.2 kmh 30.10 in1019.3 mb 0.01 in0.3 mm 0.00 in/hr0.0 mm/hr 0.06 in1.5 mm
10:45 AM 66.4°F19.1°C 66.1°F18.9°C 99% 1.5 mph E2.4 kmh E 6.9 mph11.1 kmh 30.10 in1019.3 mb 0.01 in0.3 mm 0.00 in/hr0.0 mm/hr 0.06 in1.5 mm
11:00 AM 66.7°F19.3°C 66.5°F19.2°C 99% 3.1 mph ESE5.0 kmh ESE 9.8 mph15.8 kmh 30.10 in1019.3 mb 0.01 in0.3 mm 0.00 in/hr0.0 mm/hr 0.06 in1.5 mm
11:15 AM 67.5°F19.7°C 67.2°F19.6°C 99% 3.5 mph E5.6 kmh E 12.1 mph19.5 kmh 30.10 in1019.3 mb 0.00 in0.0 mm 0.00 in/hr0.0 mm/hr 0.06 in1.5 mm
11:30 AM 68.4°F20.2°C 68.1°F20.1°C 99% 3.8 mph ENE6.1 kmh ENE 9.8 mph15.8 kmh 30.10 in1019.3 mb 0.00 in0.0 mm 0.00 in/hr0.0 mm/hr 0.06 in1.5 mm
11:45 AM 68.9°F20.5°C 68.6°F20.3°C 99% 1.8 mph ENE2.9 kmh ENE 6.9 mph11.1 kmh 30.10 in1019.3 mb 0.00 in0.0 mm 0.00 in/hr0.0 mm/hr 0.06 in1.5 mm
12:00 PM 70.2°F21.2°C 69.9°F21.1°C 99% 2.3 mph E3.7 kmh E 6.9 mph11.1 kmh 30.09 in1019.0 mb 0.00 in0.0 mm 0.00 in/hr0.0 mm/hr 0.06 in1.5 mm
12:15 PM 71.6°F22.0°C 71.3°F21.8°C 99% 2.2 mph E3.5 kmh E 6.9 mph11.1 kmh 30.09 in1019.0 mb 0.00 in0.0 mm 0.00 in/hr0.0 mm/hr 0.06 in1.5 mm
12:30 PM 72.7°F22.6°C 72.4°F22.4°C 99% 3.1 mph E5.0 kmh E 8.3 mph13.4 kmh 30.09 in1019.0 mb 0.00 in0.0 mm 0.00 in/hr0.0 mm/hr 0.06 in1.5 mm
12:45 PM 73.0°F22.8°C 72.8°F22.7°C 99% 1.5 mph ESE2.4 kmh ESE 9.2 mph14.8 kmh 30.09 in1019.0 mb 0.00 in0.0 mm 0.00 in/hr0.0 mm/hr 0.06 in1.5 mm
01:00 PM 74.3°F23.5°C 73.4°F23.0°C 97% 2.1 mph ESE3.4 kmh ESE 9.2 mph14.8 kmh 30.08 in1018.6 mb 0.00 in0.0 mm 0.00 in/hr0.0 mm/hr 0.06 in1.5 mm
01:15 PM 75.6°F24.2°C 73.4°F23.0°C 93% 1.4 mph E2.3 kmh E 11.4 mph18.3 kmh 30.08 in1018.6 mb 0.00 in0.0 mm 0.00 in/hr0.0 mm/hr 0.06 in1.5 mm
01:30 PM 75.4°F24.1°C 72.9°F22.7°C 92% 2.4 mph NE3.9 kmh NE 8.3 mph13.4 kmh 30.08 in1018.6 mb 0.00 in0.0 mm 0.00 in/hr0.0 mm/hr 0.06 in1.5 mm
01:45 PM 75.2°F24.0°C 72.8°F22.7°C 92% 2.2 mph E3.5 kmh E 10.7 mph17.2 kmh 30.07 in1018.3 mb 0.00 in0.0 mm 0.00 in/hr0.0 mm/hr 0.06 in1.5 mm
02:00 PM 74.8°F23.8°C 72.4°F22.4°C 92% 2.3 mph E3.7 kmh E 6.9 mph11.1 kmh 30.07 in1018.3 mb 0.00 in0.0 mm 0.00 in/hr0.0 mm/hr 0.06 in1.5 mm
02:15 PM 75.0°F23.9°C 72.9°F22.7°C 93% 1.1 mph SE1.8 kmh SE 6.0 mph9.7 kmh 30.07 in1018.3 mb 0.00 in0.0 mm 0.00 in/hr0.0 mm/hr 0.06 in1.5 mm
02:26 PM 75.6°F24.2°C 73.1°F22.8°C 92% 1.1 mph SW1.8 kmh SW 6.0 mph9.7 kmh 30.07 in1018.3 mb 0.00 in0.0 mm 0.00 in/hr0.0 mm/hr 0.06 in1.5 mm
02:30 PM 75.7°F24.3°C 73.3°F22.9°C 92% 0.8 mph S1.3 kmh S 6.0 mph9.7 kmh 30.07 in1018.3 mb 0.00 in0.0 mm 0.00 in/hr0.0 mm/hr 0.06 in1.5 mm
02:45 PM 76.5°F24.7°C 73.7°F23.2°C 91% 1.1 mph ESE1.8 kmh ESE 7.6 mph12.2 kmh 30.07 in1018.3 mb 0.00 in0.0 mm 0.00 in/hr0.0 mm/hr 0.06 in1.5 mm
03:00 PM 76.5°F24.7°C 73.4°F23.0°C 90% 1.3 mph SE2.1 kmh SE 6.0 mph9.7 kmh 30.07 in1018.3 mb 0.00 in0.0 mm 0.00 in/hr0.0 mm/hr 0.06 in1.5 mm
03:15 PM 77.0°F25.0°C 73.2°F22.9°C 88% 3.0 mph E4.8 kmh E 9.2 mph14.8 kmh 30.07 in1018.3 mb 0.00 in0.0 mm 0.00 in/hr0.0 mm/hr 0.06 in1.5 mm
03:30 PM 77.0°F25.0°C 72.5°F22.5°C 86% 4.2 mph E6.8 kmh E 10.7 mph17.2 kmh 30.06 in1017.9 mb 0.00 in0.0 mm 0.00 in/hr0.0 mm/hr 0.06 in1.5 mm
03:45 PM 76.5°F24.7°C 72.4°F22.4°C 87% 2.2 mph ESE3.5 kmh ESE 8.3 mph13.4 kmh 30.06 in1017.9 mb 0.00 in0.0 mm 0.00 in/hr0.0 mm/hr 0.06 in1.5 mm
04:00 PM 76.6°F24.8°C 72.2°F22.3°C 86% 2.3 mph ENE3.7 kmh ENE 10.7 mph17.2 kmh 30.05 in1017.6 mb 0.00 in0.0 mm 0.00 in/hr0.0 mm/hr 0.06 in1.5 mm
04:15 PM 75.6°F24.2°C 71.1°F21.7°C 86% 2.1 mph ENE3.4 kmh ENE 10.7 mph17.2 kmh 30.05 in1017.6 mb 0.00 in0.0 mm 0.00 in/hr0.0 mm/hr 0.06 in1.5 mm
04:30 PM 75.2°F24.0°C 70.8°F21.6°C 86% 2.4 mph ESE3.9 kmh ESE 11.4 mph18.3 kmh 30.05 in1017.6 mb 0.00 in0.0 mm 0.00 in/hr0.0 mm/hr 0.06 in1.5 mm
04:45 PM 74.7°F23.7°C 70.2°F21.2°C 86% 3.4 mph E5.5 kmh E 13.0 mph20.9 kmh 30.06 in1017.9 mb 0.00 in0.0 mm 0.00 in/hr0.0 mm/hr 0.06 in1.5 mm
05:00 PM 75.2°F24.0°C 70.1°F21.2°C 84% 2.0 mph ENE3.2 kmh ENE 9.2 mph14.8 kmh 30.05 in1017.6 mb 0.00 in0.0 mm 0.00 in/hr0.0 mm/hr 0.06 in1.5 mm
05:15 PM 73.2°F22.9°C 68.8°F20.4°C 86% 2.1 mph E3.4 kmh E 9.2 mph14.8 kmh 30.05 in1017.6 mb 0.00 in0.0 mm 0.00 in/hr0.0 mm/hr 0.06 in1.5 mm
05:30 PM 73.6°F23.1°C 68.8°F20.4°C 85% 3.8 mph ESE6.1 kmh ESE 13.0 mph20.9 kmh 30.05 in1017.6 mb 0.00 in0.0 mm 0.00 in/hr0.0 mm/hr 0.06 in1.5 mm
05:45 PM 72.0°F22.2°C 67.9°F19.9°C 87% 2.6 mph SE4.2 kmh SE 9.8 mph15.8 kmh 30.05 in1017.6 mb 0.00 in0.0 mm 0.00 in/hr0.0 mm/hr 0.06 in1.5 mm
06:00 PM 71.1°F21.7°C 67.7°F19.8°C 89% 3.4 mph E5.5 kmh E 12.1 mph19.5 kmh 30.04 in1017.3 mb 0.00 in0.0 mm 0.00 in/hr0.0 mm/hr 0.06 in1.5 mm
06:15 PM 70.2°F21.2°C 67.4°F19.7°C 91% 3.8 mph E6.1 kmh E 15.2 mph24.5 kmh 30.05 in1017.6 mb 0.00 in0.0 mm 0.00 in/hr0.0 mm/hr 0.06 in1.5 mm
06:30 PM 69.8°F21.0°C 67.4°F19.7°C 92% 3.1 mph E5.0 kmh E 13.0 mph20.9 kmh 30.04 in1017.3 mb 0.00 in0.0 mm 0.00 in/hr0.0 mm/hr 0.06 in1.5 mm
06:45 PM 70.7°F21.5°C 67.3°F19.6°C 89% 2.9 mph E4.7 kmh E 15.9 mph25.6 kmh 30.04 in1017.3 mb 0.00 in0.0 mm 0.00 in/hr0.0 mm/hr 0.06 in1.5 mm
07:00 PM 69.1°F20.6°C 66.4°F19.1°C 91% 3.1 mph ESE5.0 kmh ESE 12.1 mph19.5 kmh 30.04 in1017.3 mb 0.00 in0.0 mm 0.00 in/hr0.0 mm/hr 0.06 in1.5 mm
07:15 PM 68.0°F20.0°C 66.2°F19.0°C 94% 3.8 mph E6.1 kmh E 14.5 mph23.3 kmh 30.05 in1017.6 mb 0.00 in0.0 mm 0.00 in/hr0.0 mm/hr 0.06 in1.5 mm
07:30 PM 67.5°F19.7°C 66.0°F18.9°C 95% 3.5 mph E5.6 kmh E 11.4 mph18.3 kmh 30.05 in1017.6 mb 0.00 in0.0 mm 0.00 in/hr0.0 mm/hr 0.06 in1.5 mm
07:45 PM 67.5°F19.7°C 66.0°F18.9°C 95% 3.1 mph E5.0 kmh E 9.2 mph14.8 kmh 30.06 in1017.9 mb 0.00 in0.0 mm 0.00 in/hr0.0 mm/hr 0.06 in1.5 mm
08:00 PM 67.6°F19.8°C 66.2°F19.0°C 95% 3.7 mph E6.0 kmh E 8.3 mph13.4 kmh 30.06 in1017.9 mb 0.00 in0.0 mm 0.00 in/hr0.0 mm/hr 0.06 in1.5 mm
08:15 PM 67.3°F19.6°C 65.8°F18.8°C 95% 3.5 mph E5.6 kmh E 9.2 mph14.8 kmh 30.07 in1018.3 mb 0.00 in0.0 mm 0.00 in/hr0.0 mm/hr 0.06 in1.5 mm
08:30 PM 66.9°F19.4°C 65.8°F18.8°C 96% 4.1 mph E6.6 kmh E 9.2 mph14.8 kmh 30.06 in1017.9 mb 0.00 in0.0 mm 0.00 in/hr0.0 mm/hr 0.06 in1.5 mm
08:45 PM 66.6°F19.2°C 65.7°F18.7°C 97% 2.9 mph E4.7 kmh E 9.2 mph14.8 kmh 30.07 in1018.3 mb 0.00 in0.0 mm 0.00 in/hr0.0 mm/hr 0.06 in1.5 mm
09:00 PM 66.2°F19.0°C 65.4°F18.6°C 97% 3.1 mph E5.0 kmh E 8.3 mph13.4 kmh 30.07 in1018.3 mb 0.00 in0.0 mm 0.00 in/hr0.0 mm/hr 0.06 in1.5 mm
09:15 PM 66.2°F19.0°C 65.4°F18.6°C 97% 3.4 mph E5.5 kmh E 9.2 mph14.8 kmh 30.06 in1017.9 mb 0.00 in0.0 mm 0.00 in/hr0.0 mm/hr 0.06 in1.5 mm
09:30 PM 65.5°F18.6°C 64.6°F18.1°C 97% 2.6 mph ENE4.2 kmh ENE 8.3 mph13.4 kmh 30.07 in1018.3 mb 0.00 in0.0 mm 0.00 in/hr0.0 mm/hr 0.06 in1.5 mm
09:45 PM 65.3°F18.5°C 64.7°F18.2°C 98% 1.8 mph ENE2.9 kmh ENE 6.9 mph11.1 kmh 30.06 in1017.9 mb 0.00 in0.0 mm 0.00 in/hr0.0 mm/hr 0.06 in1.5 mm
10:00 PM 64.9°F18.3°C 64.4°F18.0°C 98% 2.1 mph ENE3.4 kmh ENE 9.8 mph15.8 kmh 30.06 in1017.9 mb 0.00 in0.0 mm 0.00 in/hr0.0 mm/hr 0.06 in1.5 mm
10:15 PM 64.4°F18.0°C 64.1°F17.8°C 99% 0.7 mph E1.1 kmh E 4.5 mph7.2 kmh 30.07 in1018.3 mb 0.00 in0.0 mm 0.00 in/hr0.0 mm/hr 0.06 in1.5 mm
10:30 PM 64.0°F17.8°C 63.8°F17.7°C 99% 0.5 mph NE0.8 kmh NE 3.8 mph6.1 kmh 30.07 in1018.3 mb 0.00 in0.0 mm 0.00 in/hr0.0 mm/hr 0.06 in1.5 mm
10:45 PM 63.9°F17.7°C 63.6°F17.6°C 99% 2.4 mph ENE3.9 kmh ENE 6.0 mph9.7 kmh 30.06 in1017.9 mb 0.00 in0.0 mm 0.00 in/hr0.0 mm/hr 0.06 in1.5 mm
11:00 PM 63.3°F17.4°C 63.1°F17.3°C 99% 0.4 mph ENE0.6 kmh ENE 4.5 mph7.2 kmh 30.06 in1017.9 mb 0.00 in0.0 mm 0.00 in/hr0.0 mm/hr 0.06 in1.5 mm
11:15 PM 62.8°F17.1°C 62.5°F16.9°C 99% 0.4 mph ENE0.6 kmh ENE 3.1 mph5.0 kmh 30.06 in1017.9 mb 0.00 in0.0 mm 0.00 in/hr0.0 mm/hr 0.06 in1.5 mm
11:30 PM 62.2°F16.8°C 62.0°F16.7°C 99% 0.7 mph NE1.1 kmh NE 4.5 mph7.2 kmh 30.06 in1017.9 mb 0.00 in0.0 mm 0.00 in/hr0.0 mm/hr 0.06 in1.5 mm
11:45 PM 61.7°F16.5°C 61.4°F16.3°C 99% 0.6 mph NE1.0 kmh NE 3.1 mph5.0 kmh 30.06 in1017.9 mb 0.00 in0.0 mm 0.00 in/hr0.0 mm/hr 0.06 in1.5 mm